Time;durP1;ratioP1;P1;durP2;ratioP2;P2;SDS_P1;SDS_P2;PMS_P1;PMS_P2;Temp;Humidity;BMP_temperature;BMP_pressure;BME280_temperature;BME280_humidity;BME280_pressure;Samples;Min_cycle;Max_cycle;Signal;HPM_P1;HPM_P2
2023/09/29 00:00:56;;;;;;;12.32;5.22;;;;;;;17.93;54.97;95099.28;4168323;28;20523;-68
2023/09/29 00:02:59;;;;;;;16.92;5.43;;;;;;;17.96;54.72;95097.06;4157392;28;20088;-67
2023/09/29 00:05:01;;;;;;;13.23;5.27;;;;;;;17.98;55.09;95089.72;4154167;28;20076;-69
2023/09/29 00:07:03;;;;;;;11.80;4.93;;;;;;;18.02;54.79;95087.50;4163117;28;20053;-68
2023/09/29 00:09:08;;;;;;;10.60;4.70;;;;;;;18.04;54.61;95087.31;4163862;28;20097;-69
2023/09/29 00:11:12;;;;;;;18.52;4.57;;;;;;;18.09;54.39;95095.47;4166490;28;20472;-67
2023/09/29 00:13:14;;;;;;;12.77;5.30;;;;;;;18.08;54.29;95078.75;4165710;28;20115;-69
2023/09/29 00:15:17;;;;;;;11.75;5.22;;;;;;;18.10;54.36;95078.56;4158718;28;20068;-67
2023/09/29 00:17:18;;;;;;;13.23;4.75;;;;;;;18.08;54.06;95078.75;4163991;28;20049;-69
2023/09/29 00:19:20;;;;;;;14.93;4.97;;;;;;;18.05;54.39;95087.13;4168994;28;20405;-69
2023/09/29 00:21:22;;;;;;;13.10;4.93;;;;;;;18.04;54.28;95084.66;4160865;28;20053;-68
2023/09/29 00:23:24;;;;;;;16.33;4.85;;;;;;;18.03;54.63;95083.03;4161422;28;20133;-67
2023/09/29 00:25:28;;;;;;;13.38;4.93;;;;;;;17.95;55.06;95086.66;4161422;28;20642;-67
2023/09/29 00:27:29;;;;;;;;;;;;;;;17.83;55.07;95085.53;4159583;28;20072;-68
2023/09/29 00:29:32;;;;;;;9.23;5.15;;;;;;;17.73;55.21;95085.88;4161174;28;19925;-67
2023/09/29 00:31:34;;;;;;;12.67;4.80;;;;;;;17.69;55.47;95089.91;4151921;28;20049;-67
2023/09/29 00:33:37;;;;;;;13.73;4.55;;;;;;;17.69;55.57;95085.44;4143571;28;20353;-69
2023/09/29 00:35:39;;;;;;;14.50;4.68;;;;;;;17.70;55.33;95091.53;4154098;28;20062;-67
2023/09/29 00:37:41;;;;;;;11.52;4.78;;;;;;;17.77;54.85;95089.78;4161162;28;20080;-68
2023/09/29 00:39:43;;;;;;;17.90;4.85;;;;;;;17.74;54.58;95092.78;4162236;28;20124;-68
2023/09/29 00:41:47;;;;;;;16.65;5.32;;;;;;;17.72;55.05;95086.88;4164530;28;20401;-67
2023/09/29 00:43:50;;;;;;;16.08;4.68;;;;;;;17.69;54.59;95092.56;4156440;28;20050;-67
2023/09/29 00:45:52;;;;;;;14.55;4.57;;;;;;;17.69;54.22;95088.09;4163343;28;20053;-68
2023/09/29 00:47:57;;;;;;;12.35;3.80;;;;;;;17.71;54.04;95085.25;4159851;28;20524;-69
2023/09/29 00:49:59;;;;;;;11.70;4.20;;;;;;;17.73;53.65;95088.53;4161013;28;20057;-68
2023/09/29 00:52:02;;;;;;;17.92;4.10;;;;;;;17.76;53.35;95083.63;4160962;28;20060;-69
2023/09/29 00:54:08;;;;;;;11.10;3.88;;;;;;;17.77;53.36;95087.13;4165782;28;20041;-69
2023/09/29 00:56:12;;;;;;;14.02;3.95;;;;;;;17.80;53.76;95081.44;4174332;28;20111;-69
2023/09/29 00:58:15;;;;;;;20.40;4.32;;;;;;;17.81;53.55;95081.25;4177652;28;20445;-67
2023/09/29 01:00:52;;;;;;;11.30;4.18;;;;;;;17.81;53.54;95077.78;4174675;28;20049;-69
2023/09/29 01:02:44;;;;;;;11.85;4.32;;;;;;;17.80;53.37;95076.94;4163732;28;20491;-69
2023/09/29 01:04:46;;;;;;;11.70;4.00;;;;;;;17.81;53.28;95078.59;4151681;28;20045;-69
2023/09/29 01:06:49;;;;;;;13.55;4.57;;;;;;;17.80;53.18;95078.78;4167093;28;20475;-68
2023/09/29 01:08:52;;;;;;;13.23;4.82;;;;;;;17.81;53.35;95081.25;4159452;28;20061;-69
2023/09/29 01:10:54;;;;;;;11.02;4.35;;;;;;;17.79;53.58;95079.81;4169061;28;20041;-69
2023/09/29 01:12:56;;;;;;;11.97;4.23;;;;;;;17.75;53.42;95074.06;4164032;28;20052;-68
2023/09/29 01:14:58;;;;;;;8.60;3.92;;;;;;;17.77;53.44;95080.00;4162152;28;20057;-69
2023/09/29 01:17:00;;;;;;;12.80;4.22;;;;;;;17.77;53.44;95081.81;4174463;28;20208;-68
2023/09/29 01:19:02;;;;;;;14.48;4.82;;;;;;;17.72;53.73;95078.91;4175910;28;20053;-66
2023/09/29 01:21:05;;;;;;;7.15;3.75;;;;;;;17.59;53.97;95074.34;4167260;28;20103;-67
2023/09/29 01:23:07;;;;;;;8.75;3.65;;;;;;;17.23;54.38;95085.06;4161635;28;20056;-67
2023/09/29 01:25:10;;;;;;;8.65;4.07;;;;;;;17.09;54.58;95084.97;4167872;28;20044;-70
2023/09/29 01:27:12;;;;;;;12.52;4.03;;;;;;;17.02;54.69;95083.28;4160984;28;20053;-68
2023/09/29 01:29:15;;;;;;;19.17;6.65;;;;;;;16.94;55.15;95079.72;4166425;28;20049;-69
2023/09/29 01:31:18;;;;;;;17.98;4.03;;;;;;;16.88;55.25;95079.66;4156154;28;20428;-68
2023/09/29 01:33:23;;;;;;;9.45;3.83;;;;;;;16.77;55.81;95075.66;4170734;28;20057;-67
2023/09/29 01:35:27;;;;;;;16.65;4.80;;;;;;;16.86;55.77;95079.03;4162618;28;20053;-68
2023/09/29 01:37:30;;;;;;;11.93;4.10;;;;;;;16.94;55.80;95084.22;4167319;28;20056;-68
2023/09/29 01:39:34;;;;;;;10.07;3.97;;;;;;;17.05;55.22;95085.53;4167868;28;20045;-69
2023/09/29 01:41:36;;;;;;;11.02;3.85;;;;;;;17.15;54.89;95084.19;4165787;28;20453;-70
2023/09/29 01:43:38;;;;;;;13.00;4.43;;;;;;;17.24;54.56;95084.88;4163200;28;20442;-68
2023/09/29 01:45:41;;;;;;;14.50;4.18;;;;;;;17.29;54.44;95084.31;4163823;28;20064;-68
2023/09/29 01:47:47;;;;;;;6.57;3.57;;;;;;;17.32;53.95;95084.75;4167704;28;20068;-68
2023/09/29 01:49:49;;;;;;;12.40;3.90;;;;;;;17.34;53.99;95087.22;4161506;28;20049;-68
2023/09/29 01:51:51;;;;;;;13.43;4.05;;;;;;;17.33;53.88;95083.72;4164313;28;20523;-69
2023/09/29 01:53:54;;;;;;;14.68;4.25;;;;;;;17.34;53.93;95088.03;4163962;28;20496;-68
2023/09/29 01:55:57;;;;;;;12.02;4.60;;;;;;;17.37;53.73;95084.19;4171503;28;20145;-67
2023/09/29 01:57:59;;;;;;;15.95;3.78;;;;;;;17.37;53.98;95076.22;4163610;28;20140;-66
2023/09/29 02:00:01;;;;;;;9.98;4.13;;;;;;;17.37;54.00;95076.22;4177300;28;20108;-67
2023/09/29 02:02:03;;;;;;;13.95;4.20;;;;;;;17.36;54.05;95077.25;4160168;28;20132;-69
2023/09/29 02:04:04;;;;;;;13.30;4.50;;;;;;;17.36;54.15;95078.06;4165858;28;20127;-68
2023/09/29 02:06:06;;;;;;;10.75;3.70;;;;;;;17.38;53.79;95085.84;4159527;28;20087;-68
2023/09/29 02:08:10;;;;;;;9.75;4.15;;;;;;;17.36;53.82;95085.19;4164636;28;20492;-70
2023/09/29 02:10:12;;;;;;;12.07;4.20;;;;;;;17.34;53.88;95089.88;4162720;28;20054;-69
2023/09/29 02:12:14;;;;;;;10.63;3.78;;;;;;;17.36;53.82;95085.19;4150517;28;20417;-69
2023/09/29 02:14:16;;;;;;;13.52;4.80;;;;;;;17.35;53.76;95084.34;4165794;28;20475;-69
2023/09/29 02:16:18;;;;;;;13.23;3.78;;;;;;;17.37;53.69;95084.19;4167930;28;20111;-68
2023/09/29 02:18:20;;;;;;;9.80;4.07;;;;;;;17.38;53.46;95080.53;4169255;28;20128;-68
2023/09/29 02:20:28;;;;;;;13.52;5.13;;;;;;;17.42;53.55;95079.09;4162517;28;20120;-67
2023/09/29 02:22:31;;;;;;;11.82;4.35;;;;;;;17.32;54.01;95083.94;4163044;28;20049;-67
2023/09/29 02:24:33;;;;;;;13.07;3.88;;;;;;;17.27;54.60;95084.53;4160896;28;20468;-68
2023/09/29 02:26:35;;;;;;;10.68;4.13;;;;;;;17.27;54.38;95079.22;4153080;28;20046;-70
2023/09/29 02:28:36;;;;;;;11.93;4.00;;;;;;;17.25;54.67;95080.41;4159551;28;20065;-69
2023/09/29 02:30:39;;;;;;;12.73;4.15;;;;;;;17.25;54.87;95086.53;4159733;28;20076;-68
2023/09/29 02:32:41;;;;;;;11.82;4.00;;;;;;;17.26;54.42;95085.50;4170971;28;20048;-68
2023/09/29 02:34:44;;;;;;;17.48;4.35;;;;;;;17.13;54.43;95090.69;4171796;28;20463;-69
2023/09/29 02:36:45;;;;;;;18.58;4.72;;;;;;;17.05;54.82;95085.53;4158555;28;20084;-67
2023/09/29 02:38:48;;;;;;;18.20;4.70;;;;;;;17.01;55.02;95090.38;4162627;28;20057;-70
2023/09/29 02:40:50;;;;;;;20.65;4.93;;;;;;;16.94;55.11;95089.50;4161220;28;20049;-68
2023/09/29 02:42:53;;;;;;;11.98;4.22;;;;;;;16.90;55.15;95089.03;4163775;28;20049;-67
2023/09/29 02:44:55;;;;;;;10.23;4.05;;;;;;;16.88;55.10;95092.91;4163743;28;20045;-67
2023/09/29 02:46:58;;;;;;;14.57;4.35;;;;;;;16.78;54.97;95091.34;4152804;28;20046;-68
2023/09/29 02:49:00;;;;;;;14.98;4.53;;;;;;;16.81;55.24;95092.84;4154923;28;20049;-68
2023/09/29 02:51:02;;;;;;;11.45;4.28;;;;;;;16.89;55.35;95095.34;4151756;28;20094;-67
2023/09/29 02:53:03;;;;;;;10.55;4.18;;;;;;;16.98;55.12;95094.22;4162913;28;20072;-67
2023/09/29 02:55:07;;;;;;;8.63;4.05;;;;;;;17.07;55.23;95096.75;4159569;28;20504;-68
2023/09/29 02:57:09;;;;;;;;;;;;;;;17.12;55.00;95100.47;4173617;28;20052;-69
2023/09/29 02:59:12;;;;;;;12.82;4.45;;;;;;;17.18;55.02;95096.22;4177832;28;19921;-67
2023/09/29 03:01:16;;;;;;;11.32;4.15;;;;;;;17.19;55.18;95098.69;4177540;28;20088;-68
2023/09/29 03:03:19;;;;;;;15.02;4.32;;;;;;;17.29;55.34;95105.50;4171904;28;20128;-67
2023/09/29 03:05:22;;;;;;;11.38;4.72;;;;;;;17.34;55.06;95103.09;4168465;28;20128;-69
2023/09/29 03:07:24;;;;;;;13.25;4.43;;;;;;;17.36;55.30;95104.56;4159760;28;20140;-69
2023/09/29 03:09:29;;;;;;;8.50;4.07;;;;;;;17.38;54.95;95099.06;4149999;28;20120;-69
2023/09/29 03:11:31;;;;;;;7.82;4.10;;;;;;;17.42;54.83;95099.50;4162210;28;20062;-68
2023/09/29 03:13:32;;;;;;;8.80;4.32;;;;;;;17.45;54.97;95110.53;4171449;28;20057;-69
2023/09/29 03:15:34;;;;;;;8.38;3.88;;;;;;;17.47;54.97;95107.69;4165633;28;20095;-67
2023/09/29 03:17:37;;;;;;;9.43;4.20;;;;;;;17.49;54.69;95114.44;4162086;28;20361;-67
2023/09/29 03:19:39;;;;;;;16.90;4.88;;;;;;;17.52;54.88;95100.78;4166480;28;20077;-68
2023/09/29 03:21:42;;;;;;;10.65;4.38;;;;;;;17.53;54.49;95102.44;4168113;28;20415;-67
2023/09/29 03:23:45;;;;;;;13.00;4.60;;;;;;;17.53;54.39;95101.59;4167184;28;20725;-68
2023/09/29 03:25:47;;;;;;;10.50;4.50;;;;;;;17.53;54.31;95102.44;4160360;28;20295;-69
2023/09/29 03:27:48;;;;;;;10.48;4.20;;;;;;;17.52;54.35;95098.16;4168448;28;20115;-69
2023/09/29 03:29:50;;;;;;;9.85;4.55;;;;;;;17.56;54.28;95107.34;4167523;28;20040;-68
2023/09/29 03:31:53;;;;;;;11.90;3.95;;;;;;;17.57;53.91;95098.41;4164914;28;20068;-68
2023/09/29 03:33:55;;;;;;;17.88;4.63;;;;;;;17.57;53.83;95097.56;4154943;28;20058;-68
2023/09/29 03:35:57;;;;;;;10.65;4.55;;;;;;;17.57;53.74;95098.41;4160733;28;20120;-68
2023/09/29 03:38:00;;;;;;;8.18;4.47;;;;;;;17.55;54.17;95096.94;4161588;28;20492;-69
2023/09/29 03:40:26;;;;;;;16.90;4.33;;;;;;;17.57;53.94;95105.50;4165252;28;20053;-69
2023/09/29 03:42:29;;;;;;;13.52;4.38;;;;;;;17.52;53.73;95111.38;4165667;28;20057;-70
2023/09/29 03:44:31;;;;;;;10.32;3.75;;;;;;;17.19;54.20;95114.59;4163471;28;20053;-70
2023/09/29 03:46:33;;;;;;;16.40;4.60;;;;;;;16.87;55.26;95110.59;4162042;28;20064;-68
2023/09/29 03:48:36;;;;;;;12.85;4.50;;;;;;;16.50;56.33;95106.31;4164003;28;20419;-70
2023/09/29 03:50:39;;;;;;;11.93;5.40;;;;;;;16.30;57.05;95106.84;4155396;28;20081;-69
2023/09/29 03:52:42;;;;;;;12.02;5.07;;;;;;;16.38;57.10;95098.81;4162883;28;20048;-66
2023/09/29 03:54:44;;;;;;;18.60;4.63;;;;;;;16.54;56.62;95111.03;4158434;28;20115;-68
2023/09/29 03:56:46;;;;;;;9.77;4.90;;;;;;;16.69;56.15;95100.41;4163694;28;20045;-68
2023/09/29 03:58:49;;;;;;;13.55;5.18;;;;;;;16.83;55.94;95093.47;4172148;28;20051;-68
2023/09/29 04:00:53;;;;;;;14.30;4.35;;;;;;;16.92;55.59;95102.91;4169977;28;20490;-69
2023/09/29 04:02:57;;;;;;;22.85;4.97;;;;;;;17.00;55.17;95101.97;4171928;28;20115;-69
2023/09/29 04:04:59;;;;;;;19.35;5.35;;;;;;;17.05;54.86;95102.22;4167386;28;20042;-70
2023/09/29 04:07:03;;;;;;;9.38;4.90;;;;;;;17.11;54.81;95103.31;4164877;28;20493;-71
2023/09/29 04:09:04;;;;;;;;;;;;;;;17.14;54.42;95098.47;4157648;28;20100;-71
2023/09/29 04:11:07;;;;;;;12.57;4.97;;;;;;;17.18;54.40;95104.16;4158307;28;19925;-70
2023/09/29 04:13:09;;;;;;;21.42;5.68;;;;;;;17.20;54.17;95102.97;4141584;28;20054;-67
2023/09/29 04:15:12;;;;;;;15.90;5.75;;;;;;;17.22;53.80;95105.44;4165694;28;20484;-71
2023/09/29 04:17:14;;;;;;;13.27;5.20;;;;;;;17.25;53.74;95104.22;4163235;28;20401;-70
2023/09/29 04:19:16;;;;;;;14.80;5.35;;;;;;;17.25;53.91;95105.06;4160630;28;20057;-69
2023/09/29 04:21:18;;;;;;;20.33;5.55;;;;;;;17.28;53.82;95107.31;4161436;28;20052;-68
2023/09/29 04:23:22;;;;;;;11.77;4.47;;;;;;;17.31;53.67;95108.78;4160872;28;20053;-69
2023/09/29 04:25:25;;;;;;;16.80;4.70;;;;;;;17.33;53.29;95102.25;4161438;28;20045;-70
2023/09/29 04:27:27;;;;;;;13.85;4.35;;;;;;;17.34;52.88;95103.09;4162461;28;20045;-70
2023/09/29 04:29:32;;;;;;;15.85;4.80;;;;;;;17.26;53.67;95101.41;4163632;28;20054;-71
2023/09/29 04:31:33;;;;;;;17.70;5.88;;;;;;;17.22;53.83;95104.63;4169330;28;20405;-68
2023/09/29 04:33:36;;;;;;;13.93;4.85;;;;;;;17.16;54.03;95114.13;4169975;28;20060;-70
2023/09/29 04:35:38;;;;;;;17.75;4.75;;;;;;;17.19;53.30;95111.13;4167733;28;20049;-68
2023/09/29 04:37:43;;;;;;;17.02;5.20;;;;;;;17.22;53.37;95104.63;4169710;28;20500;-70
2023/09/29 04:39:46;;;;;;;18.90;5.10;;;;;;;17.26;53.51;95114.63;4160237;28;20083;-70
2023/09/29 04:41:48;;;;;;;19.10;4.93;;;;;;;17.25;53.47;95117.47;4164390;28;20045;-71
2023/09/29 04:43:50;;;;;;;21.20;5.43;;;;;;;17.22;53.68;95120.50;4165138;28;20041;-71
2023/09/29 04:45:55;;;;;;;28.13;5.72;;;;;;;17.18;53.70;95115.56;4166183;28;20041;-70
2023/09/29 04:47:58;;;;;;;13.68;5.32;;;;;;;17.10;53.45;95120.19;4163505;28;20045;-71
2023/09/29 04:50:01;;;;;;;26.38;7.18;;;;;;;16.79;54.29;95115.97;4159386;28;20484;-72
2023/09/29 04:52:03;;;;;;;28.88;7.40;;;;;;;16.65;54.76;95115.03;4156691;28;20528;-69
2023/09/29 04:54:06;;;;;;;20.75;5.70;;;;;;;16.66;54.42;95119.28;4161836;28;20128;-70
2023/09/29 04:56:08;;;;;;;16.63;5.60;;;;;;;16.65;54.49;95116.81;4174219;28;20049;-71
2023/09/29 04:58:10;;;;;;;20.15;5.78;;;;;;;16.66;54.29;95121.94;4163136;28;20065;-72
2023/09/29 05:00:13;;;;;;;30.15;6.45;;;;;;;16.68;54.43;95119.94;4170310;28;20055;-71
2023/09/29 05:02:15;;;;;;;18.15;5.82;;;;;;;16.74;54.51;95126.31;4171728;28;20057;-69
2023/09/29 05:04:18;;;;;;;13.32;5.22;;;;;;;16.81;54.33;95119.28;4164101;28;20443;-70
2023/09/29 05:06:23;;;;;;;17.27;5.78;;;;;;;16.88;54.43;95125.47;4164788;28;20068;-69
2023/09/29 05:08:26;;;;;;;17.48;6.05;;;;;;;16.97;54.22;95129.66;4163715;28;20042;-72
2023/09/29 05:10:28;;;;;;;22.80;5.45;;;;;;;17.03;54.25;95121.94;4159094;28;20049;-69
2023/09/29 05:12:30;;;;;;;19.50;5.50;;;;;;;17.12;53.93;95128.75;4164395;28;20053;-69
2023/09/29 05:14:32;;;;;;;22.35;5.85;;;;;;;17.18;53.96;95128.81;4164851;28;20102;-70
2023/09/29 05:16:34;;;;;;;21.63;5.72;;;;;;;17.25;54.16;95130.72;4159573;28;20057;-69
2023/09/29 05:18:36;;;;;;;20.75;5.38;;;;;;;17.32;53.91;95129.78;4173152;28;20045;-70
2023/09/29 05:20:38;;;;;;;20.05;6.20;;;;;;;17.42;53.58;95132.06;4170066;28;20049;-72
2023/09/29 05:22:41;;;;;;;24.85;5.85;;;;;;;17.50;53.26;95137.25;4171418;28;20072;-71
2023/09/29 05:24:43;;;;;;;11.65;5.40;;;;;;;17.56;53.88;95138.31;4172035;28;20052;-69
2023/09/29 05:26:46;;;;;;;16.92;5.53;;;;;;;17.63;53.91;95135.72;4174812;28;20407;-70
2023/09/29 05:28:53;;;;;;;19.25;5.78;;;;;;;17.63;54.68;95139.19;4164465;28;20057;-71
2023/09/29 05:30:56;;;;;;;18.98;5.90;;;;;;;17.64;54.87;95140.00;4166699;28;20056;-70
2023/09/29 05:32:58;;;;;;;15.57;5.90;;;;;;;17.63;53.88;95141.03;4168398;28;20505;-70
2023/09/29 05:35:00;;;;;;;28.38;5.78;;;;;;;17.64;54.17;95145.28;4150078;28;20070;-71
2023/09/29 05:37:04;;;;;;;16.00;6.60;;;;;;;17.70;54.53;95149.84;4161917;28;20058;-71
2023/09/29 05:39:06;;;;;;;27.58;6.18;;;;;;;17.79;54.42;95151.34;4162943;28;20474;-69
2023/09/29 05:41:08;;;;;;;17.63;5.95;;;;;;;17.87;54.46;95139.81;4164110;28;20495;-71
2023/09/29 05:43:10;;;;;;;12.70;5.50;;;;;;;17.91;53.80;95144.50;4163262;28;20361;-74
2023/09/29 05:45:15;;;;;;;13.48;6.47;;;;;;;17.97;53.59;95134.97;4164745;28;20080;-69
2023/09/29 05:47:17;;;;;;;19.05;7.55;;;;;;;18.03;54.12;95144.81;4163187;28;20491;-69
2023/09/29 05:49:20;;;;;;;;;;;;;;;18.14;54.22;95140.81;4162897;28;20075;-69
2023/09/29 05:51:22;;;;;;;22.00;7.97;;;;;;;18.21;53.93;95149.59;4164911;28;19928;-70
2023/09/29 05:53:26;;;;;;;20.90;7.53;;;;;;;18.20;54.64;95145.31;4164095;28;20053;-71
2023/09/29 05:55:29;;;;;;;19.30;7.82;;;;;;;18.15;54.92;95151.19;4162233;28;20061;-71
2023/09/29 05:57:31;;;;;;;20.77;9.45;;;;;;;18.04;55.63;95150.94;4163679;28;20060;-71
2023/09/29 05:59:33;;;;;;;27.95;8.63;;;;;;;18.08;55.58;95146.88;4168750;28;20073;-70
2023/09/29 06:01:35;;;;;;;17.77;7.68;;;;;;;18.16;55.35;95149.38;4165860;28;20123;-70
2023/09/29 06:03:40;;;;;;;23.75;7.70;;;;;;;18.16;55.35;95146.72;4167507;28;20045;-72
2023/09/29 06:05:43;;;;;;;23.13;8.15;;;;;;;18.14;55.09;95148.75;4162374;28;20041;-72
2023/09/29 06:07:45;;;;;;;19.73;8.48;;;;;;;18.15;55.10;95143.22;4157240;28;20056;-74
2023/09/29 06:09:47;;;;;;;21.90;8.50;;;;;;;18.18;55.00;95152.66;4160130;28;20134;-69
2023/09/29 06:11:49;;;;;;;13.35;7.20;;;;;;;18.18;55.09;95153.47;4159742;28;20120;-71
2023/09/29 06:13:53;;;;;;;31.23;9.07;;;;;;;18.23;54.83;95152.88;4156277;28;20137;-71
2023/09/29 06:15:58;;;;;;;34.53;9.80;;;;;;;18.26;53.47;95147.19;4151523;28;20127;-69
2023/09/29 06:18:00;;;;;;;24.75;8.48;;;;;;;18.14;53.14;95152.22;4152426;28;20081;-71
2023/09/29 06:20:04;;;;;;;30.73;9.05;;;;;;;18.07;53.60;95150.53;4156509;28;20111;-70
2023/09/29 06:22:06;;;;;;;30.80;9.43;;;;;;;18.03;53.58;95154.59;4158448;28;20057;-71
2023/09/29 06:24:09;;;;;;;32.03;8.40;;;;;;;17.93;54.13;95145.16;4157308;28;20080;-71
2023/09/29 06:26:10;;;;;;;25.75;8.80;;;;;;;17.99;54.14;95154.97;4163885;28;20107;-72
2023/09/29 06:28:13;;;;;;;28.60;8.52;;;;;;;18.13;53.55;95149.75;4160736;28;20563;-69
2023/09/29 06:30:15;;;;;;;36.88;8.32;;;;;;;18.23;53.07;95144.94;4160794;28;20817;-71
2023/09/29 06:32:16;;;;;;;36.05;8.57;;;;;;;18.36;52.07;95152.94;4163198;28;20049;-69
2023/09/29 06:34:18;;;;;;;20.08;7.60;;;;;;;18.39;50.98;95149.06;4167233;28;20536;-71
2023/09/29 06:36:22;;;;;;;24.92;7.13;;;;;;;18.46;51.03;95155.25;4151662;28;20386;-71
2023/09/29 06:38:28;;;;;;;35.47;9.13;;;;;;;18.59;50.93;95149.19;4167039;28;20500;-68
2023/09/29 06:40:30;;;;;;;;;;;;;;;18.70;50.66;95150.47;4166396;28;20069;-71
2023/09/29 06:42:32;;;;;;;36.92;6.88;;;;;;;18.79;50.02;95155.41;4168162;28;19982;-70
2023/09/29 06:44:34;;;;;;;29.88;6.13;;;;;;;18.89;49.09;95149.75;4173908;28;20072;-72
2023/09/29 06:46:36;;;;;;;30.77;8.77;;;;;;;18.94;49.40;95149.94;4153119;28;20496;-72
2023/09/29 06:48:38;;;;;;;20.45;6.88;;;;;;;18.84;49.07;95157.47;4162232;28;20054;-70
2023/09/29 06:50:40;;;;;;;29.30;6.97;;;;;;;18.76;48.84;95142.53;4162057;28;20129;-70
2023/09/29 06:52:42;;;;;;;27.63;5.97;;;;;;;18.88;48.46;95145.44;4163800;28;20056;-70
2023/09/29 06:54:44;;;;;;;18.35;4.75;;;;;;;18.99;47.05;95144.88;4160466;28;20072;-70
2023/09/29 06:56:51;;;;;;;15.43;4.70;;;;;;;19.17;46.58;95146.94;4168862;28;20052;-71
2023/09/29 06:58:57;;;;;;;27.40;5.30;;;;;;;19.38;46.12;95148.63;4163091;28;20041;-72
2023/09/29 07:01:01;;;;;;;16.23;4.63;;;;;;;19.60;45.26;95145.78;4170522;28;20054;-71
2023/09/29 07:03:04;;;;;;;17.23;5.13;;;;;;;19.78;45.41;95150.50;4168537;28;20049;-73
2023/09/29 07:05:06;;;;;;;18.25;5.80;;;;;;;19.81;45.90;95153.59;4157416;28;20523;-71
2023/09/29 07:07:10;;;;;;;25.63;6.45;;;;;;;19.77;46.03;95152.34;4172147;28;20057;-72
2023/09/29 07:09:13;;;;;;;27.38;8.30;;;;;;;19.44;45.87;95141.66;4159051;28;20136;-70
2023/09/29 07:11:29;;;;;;;21.10;6.88;;;;;;;19.38;46.41;95148.63;4160535;28;20122;-70
2023/09/29 07:13:32;;;;;;;20.65;6.15;;;;;;;19.43;46.44;95150.66;4159443;28;20080;-71
2023/09/29 07:15:35;;;;;;;22.08;6.18;;;;;;;19.51;45.91;95141.66;4159722;28;20136;-68
2023/09/29 07:17:37;;;;;;;20.30;5.32;;;;;;;19.56;45.33;95150.66;4159056;28;20073;-72
2023/09/29 07:19:46;;;;;;;21.38;6.50;;;;;;;19.56;45.65;95149.88;4161241;28;20053;-70
2023/09/29 07:21:48;;;;;;;18.08;5.93;;;;;;;19.62;45.79;95147.22;4162724;28;20049;-72
2023/09/29 07:23:50;;;;;;;25.23;5.65;;;;;;;19.77;45.04;95155.00;4163798;28;20053;-71
2023/09/29 07:25:52;;;;;;;14.88;5.00;;;;;;;19.80;44.77;95153.78;4161315;28;20445;-72
2023/09/29 07:27:54;;;;;;;16.10;4.95;;;;;;;20.05;44.42;95146.81;4161669;28;20104;-70
2023/09/29 07:29:58;;;;;;;24.65;5.85;;;;;;;20.22;43.74;95151.69;4163031;28;20702;-71
2023/09/29 07:32:03;;;;;;;15.88;4.70;;;;;;;20.44;43.70;95153.06;4157981;28;20046;-73
2023/09/29 07:34:06;;;;;;;13.70;4.38;;;;;;;20.59;43.03;95152.84;4161206;28;20084;-70
2023/09/29 07:36:08;;;;;;;17.40;4.72;;;;;;;20.60;42.63;95146.47;4159088;28;20046;-71
2023/09/29 07:38:10;;;;;;;21.60;5.93;;;;;;;20.73;42.90;95150.94;4167706;28;20053;-70
2023/09/29 07:40:12;;;;;;;25.65;5.97;;;;;;;20.96;42.29;95152.28;4162381;28;20049;-71
2023/09/29 07:42:14;;;;;;;13.98;5.00;;;;;;;21.07;41.27;95157.75;4154398;28;20131;-70
2023/09/29 07:44:18;;;;;;;24.95;5.30;;;;;;;21.10;40.60;95150.34;4152048;28;20077;-69
2023/09/29 07:46:19;;;;;;;14.73;4.63;;;;;;;20.97;40.46;95151.25;4164900;28;21533;-74
2023/09/29 07:48:25;;;;;;;17.83;4.32;;;;;;;20.94;41.48;95159.66;4158156;28;20128;-71
2023/09/29 07:50:28;;;;;;;21.27;7.15;;;;;;;20.92;41.71;95156.41;4160470;28;20053;-70
2023/09/29 07:52:31;;;;;;;18.13;5.93;;;;;;;21.03;41.68;95155.72;4163049;28;20481;-71
2023/09/29 07:54:34;;;;;;;11.02;4.05;;;;;;;21.16;40.60;95152.97;4156681;28;20500;-71
2023/09/29 07:56:36;;;;;;;17.40;4.57;;;;;;;21.30;40.46;95153.72;4165658;28;20049;-70
2023/09/29 07:58:38;;;;;;;16.52;4.40;;;;;;;21.38;39.73;95152.63;4161218;28;20053;-73
2023/09/29 08:00:40;;;;;;;15.80;4.43;;;;;;;21.43;38.62;95155.53;4170164;28;20053;-72
2023/09/29 08:02:43;;;;;;;13.23;4.28;;;;;;;21.48;38.71;95153.03;4172341;28;20049;-71
2023/09/29 08:04:46;;;;;;;18.88;4.28;;;;;;;21.54;38.54;95146.81;4154310;28;20156;-71
2023/09/29 08:06:49;;;;;;;18.27;4.00;;;;;;;21.43;38.11;95148.34;4166543;28;20045;-72
2023/09/29 08:08:52;;;;;;;16.38;3.88;;;;;;;21.50;38.62;95152.81;4161259;28;20049;-71
2023/09/29 08:10:55;;;;;;;11.77;3.80;;;;;;;21.55;38.12;95148.44;4154965;28;20540;-74
2023/09/29 08:12:56;;;;;;;14.82;4.50;;;;;;;21.59;38.09;95146.97;4160738;28;20153;-71
2023/09/29 08:14:59;;;;;;;7.80;3.10;;;;;;;21.71;37.76;95156.97;4161787;28;20145;-71
2023/09/29 08:17:02;;;;;;;18.77;4.40;;;;;;;21.94;37.55;95145.69;4157317;28;20052;-71
2023/09/29 08:19:05;;;;;;;14.43;3.80;;;;;;;22.13;36.80;95147.34;4159684;28;20155;-70
2023/09/29 08:21:07;;;;;;;12.32;3.33;;;;;;;22.24;36.12;95152.00;4161444;28;20062;-70
2023/09/29 08:23:09;;;;;;;11.75;3.42;;;;;;;22.31;36.75;95151.94;4156465;28;20057;-70
2023/09/29 08:25:12;;;;;;;20.15;4.10;;;;;;;22.38;35.78;95152.69;4153185;28;20076;-70
2023/09/29 08:27:14;;;;;;;11.93;3.33;;;;;;;22.42;35.47;95151.19;4156428;28;20500;-70
2023/09/29 08:29:16;;;;;;;12.38;3.60;;;;;;;22.41;35.89;95152.25;4162960;28;20128;-72
2023/09/29 08:31:19;;;;;;;18.08;3.90;;;;;;;22.46;35.03;95144.38;4162208;28;20095;-72
2023/09/29 08:33:21;;;;;;;11.85;3.30;;;;;;;22.50;35.50;95147.44;4161935;28;20063;-69
2023/09/29 08:35:40;;;;;;;14.60;3.35;;;;;;;22.41;34.60;95135.41;4163617;28;20136;-72
2023/09/29 08:37:43;;;;;;;15.52;3.30;;;;;;;22.24;34.79;95140.50;4163128;28;20045;-69
2023/09/29 08:39:45;;;;;;;10.23;3.03;;;;;;;22.18;34.77;95136.03;4145419;28;20050;-70
2023/09/29 08:41:59;;;;;;;13.13;3.53;;;;;;;22.24;35.24;95138.66;4162367;28;20102;-73
2023/09/29 08:44:08;;;;;;;13.77;4.03;;;;;;;22.20;35.78;95139.28;4151110;28;20054;-71
2023/09/29 08:46:13;;;;;;;11.13;3.50;;;;;;;22.53;35.66;95138.16;4165245;28;20128;-73
2023/09/29 08:48:16;;;;;;;14.13;3.58;;;;;;;22.80;34.87;95134.13;4167363;28;20095;-72
2023/09/29 08:50:19;;;;;;;11.40;3.15;;;;;;;23.12;34.52;95133.13;4148369;28;20050;-71
2023/09/29 08:52:21;;;;;;;10.68;2.88;;;;;;;23.44;33.98;95137.19;4162396;28;20061;-71
2023/09/29 08:54:24;;;;;;;6.55;3.03;;;;;;;23.29;33.43;95126.91;4161720;28;20144;-73
2023/09/29 08:56:27;;;;;;;6.03;3.10;;;;;;;22.94;33.46;95128.63;4163293;28;20048;-69
2023/09/29 08:58:31;;;;;;;8.98;2.60;;;;;;;22.61;32.97;95140.53;4163724;28;20483;-73
2023/09/29 09:00:34;;;;;;;10.50;2.90;;;;;;;22.43;33.83;95144.00;4156597;28;20516;-71
2023/09/29 09:02:36;;;;;;;11.75;2.97;;;;;;;22.20;34.08;95136.59;4164058;28;20116;-71
2023/09/29 09:04:38;;;;;;;4.22;2.88;;;;;;;22.37;34.39;95145.72;4166233;28;20050;-70
2023/09/29 09:06:41;;;;;;;7.90;2.97;;;;;;;22.47;33.69;95138.00;4170676;28;20060;-71
2023/09/29 09:08:43;;;;;;;10.57;3.25;;;;;;;22.51;33.46;95135.69;4177792;28;20052;-71
2023/09/29 09:10:45;;;;;;;10.05;2.80;;;;;;;22.55;33.46;95134.22;4166655;28;20103;-72
2023/09/29 09:12:52;;;;;;;6.20;2.90;;;;;;;22.49;33.62;95143.13;4163648;28;20046;-72
2023/09/29 09:14:56;;;;;;;13.45;3.20;;;;;;;22.61;34.08;95137.88;4164458;28;20516;-70
2023/09/29 09:17:01;;;;;;;11.90;2.83;;;;;;;22.69;33.74;95132.19;4157177;28;20108;-70
2023/09/29 09:19:14;;;;;;;16.23;4.13;;;;;;;22.80;33.47;95139.47;4166519;28;20050;-70
2023/09/29 09:21:17;;;;;;;10.73;3.10;;;;;;;22.88;33.15;95128.47;4163257;28;20053;-72
2023/09/29 09:23:19;;;;;;;11.00;3.40;;;;;;;23.00;33.02;95130.41;4161048;28;20054;-69
2023/09/29 09:25:38;;;;;;;9.95;3.42;;;;;;;23.03;32.77;95137.97;4160703;28;20095;-70
2023/09/29 09:27:42;;;;;;;12.73;3.00;;;;;;;23.05;33.11;95136.69;4162330;28;20052;-71
2023/09/29 09:29:47;;;;;;;11.57;3.13;;;;;;;23.09;32.28;95127.19;4173915;28;20060;-72
2023/09/29 09:31:51;;;;;;;10.65;3.13;;;;;;;23.09;32.49;95132.53;4164642;28;20056;-71
2023/09/29 09:33:53;;;;;;;12.68;3.65;;;;;;;23.09;32.67;95134.41;4159134;28;20149;-71